This is the latest recevied weather packets stored in our database for station/object TAPIOLA. If no packets are shown the sender has not sent any weather packets the latest 10 day(s).
| Time | Temp. | Humidity | Pressure | Rain* | Wind** | Luminosity | Snow |
|---|---|---|---|---|---|---|---|
| 1777835228 | 12.78° C | 67% | 1007.6 hPa | 0 mm | - | - | - |
| 1777834028 | 12.78° C | 69% | 1007.5 hPa | 0 mm | - | - | - |
| 1777832828 | 13.33° C | 66% | 1007.4 hPa | 0 mm | - | - | - |
| 1777831628 | 13.33° C | 66% | 1007.4 hPa | 0 mm | - | - | - |
| 1777830428 | 13.33° C | 64% | 1007.4 hPa | 0 mm | - | - | - |
| 1777829234 | 13.33° C | 66% | 1007.3 hPa | 0 mm | - | - | - |
| 1777828028 | 13.33° C | 64% | 1007.4 hPa | 0 mm | - | - | - |
| 1777826828 | 13.89° C | 60% | 1007.4 hPa | 0 mm | - | - | - |
| 1777825627 | 14.44° C | 60% | 1007.5 hPa | 0 mm | - | - | - |
| 1777824428 | 14.44° C | 60% | 1007.6 hPa | 0 mm | - | - | - |
| 1777823228 | 13.89° C | 60% | 1007.6 hPa | 0 mm | - | - | - |
| 1777822027 | 14.44° C | 59% | 1007.5 hPa | 0 mm | - | - | - |
| 1777820827 | 15° C | 58% | 1007.5 hPa | 0 mm | - | - | - |
| 1777819627 | 13.89° C | 63% | 1007.6 hPa | 0 mm | - | - | - |
| 1777818427 | 13.89° C | 62% | 1007.5 hPa | 0 mm | - | - | - |
| 1777817227 | 15.56° C | 59% | 1007.5 hPa | 0 mm | - | - | - |
| 1777816027 | 15.56° C | 57% | 1007.5 hPa | 0 mm | - | - | - |
| 1777814827 | 16.11° C | 55% | 1007.5 hPa | 0 mm | - | - | - |
| 1777813627 | 15° C | 56% | 1007.6 hPa | 0 mm | - | - | - |
| 1777812427 | 17.22° C | 48% | 1007.5 hPa | 0 mm | - | - | - |
| 1777811227 | 16.67° C | 49% | 1007.6 hPa | 0 mm | - | - | - |
| 1777810027 | 15.56° C | 54% | 1007.7 hPa | 0 mm | - | - | - |
| 1777808827 | 15.56° C | 54% | 1007.8 hPa | 0 mm | - | - | - |
| 1777807626 | 16.11° C | 52% | 1007.7 hPa | 0 mm | - | - | - |
| 1777806427 | 16.11° C | 49% | 1007.7 hPa | 0 mm | - | - | - |
* Rain latest hour (hover to see other rain measurements)
** Current wind speed in m/s (hover to see current wind gust speed)